sensor_id;sensor_type;location;lat;lon;timestamp;P1;durP1;ratioP1;P2;durP2;ratioP2
39612;SDS011;25303;48.896;13.342;2023-04-03T00:00:47;1.80;;;0.90;;
39612;SDS011;25303;48.896;13.342;2023-04-03T00:03:31;1.53;;;0.93;;
39612;SDS011;25303;48.896;13.342;2023-04-03T00:06:15;1.23;;;0.85;;
39612;SDS011;25303;48.896;13.342;2023-04-03T00:08:58;1.05;;;0.80;;
39612;SDS011;25303;48.896;13.342;2023-04-03T00:11:42;1.40;;;0.75;;
39612;SDS011;25303;48.896;13.342;2023-04-03T00:14:25;1.85;;;1.00;;
39612;SDS011;25303;48.896;13.342;2023-04-03T00:17:08;1.83;;;0.80;;
39612;SDS011;25303;48.896;13.342;2023-04-03T00:19:51;2.45;;;1.10;;
39612;SDS011;25303;48.896;13.342;2023-04-03T00:22:34;1.92;;;0.90;;
39612;SDS011;25303;48.896;13.342;2023-04-03T00:25:17;1.40;;;0.70;;
39612;SDS011;25303;48.896;13.342;2023-04-03T00:28:02;1.45;;;0.80;;
39612;SDS011;25303;48.896;13.342;2023-04-03T00:30:46;2.55;;;1.20;;
39612;SDS011;25303;48.896;13.342;2023-04-03T00:33:30;2.15;;;1.00;;
39612;SDS011;25303;48.896;13.342;2023-04-03T00:36:13;2.00;;;0.90;;
39612;SDS011;25303;48.896;13.342;2023-04-03T00:41:41;2.45;;;0.90;;
39612;SDS011;25303;48.896;13.342;2023-04-03T00:47:43;1.38;;;0.80;;
39612;SDS011;25303;48.896;13.342;2023-04-03T00:53:10;1.15;;;0.80;;
39612;SDS011;25303;48.896;13.342;2023-04-03T00:55:56;1.90;;;1.13;;
39612;SDS011;25303;48.896;13.342;2023-04-03T00:58:41;2.28;;;0.88;;
39612;SDS011;25303;48.896;13.342;2023-04-03T01:01:28;1.20;;;0.70;;
39612;SDS011;25303;48.896;13.342;2023-04-03T01:04:25;1.60;;;1.00;;
39612;SDS011;25303;48.896;13.342;2023-04-03T01:07:11;1.67;;;1.08;;
39612;SDS011;25303;48.896;13.342;2023-04-03T01:09:58;1.50;;;0.90;;
39612;SDS011;25303;48.896;13.342;2023-04-03T01:12:43;1.75;;;0.90;;
39612;SDS011;25303;48.896;13.342;2023-04-03T01:15:28;1.83;;;0.88;;
39612;SDS011;25303;48.896;13.342;2023-04-03T01:18:14;0.98;;;0.70;;
39612;SDS011;25303;48.896;13.342;2023-04-03T01:24:14;1.83;;;0.70;;
39612;SDS011;25303;48.896;13.342;2023-04-03T01:27:05;2.33;;;1.02;;
39612;SDS011;25303;48.896;13.342;2023-04-03T01:29:49;1.00;;;0.70;;
39612;SDS011;25303;48.896;13.342;2023-04-03T01:32:34;1.65;;;0.80;;
39612;SDS011;25303;48.896;13.342;2023-04-03T01:35:17;1.77;;;0.95;;
39612;SDS011;25303;48.896;13.342;2023-04-03T01:38:00;2.33;;;1.30;;
39612;SDS011;25303;48.896;13.342;2023-04-03T01:40:43;1.50;;;0.70;;
39612;SDS011;25303;48.896;13.342;2023-04-03T01:43:26;1.95;;;1.00;;
39612;SDS011;25303;48.896;13.342;2023-04-03T01:46:09;2.20;;;1.10;;
39612;SDS011;25303;48.896;13.342;2023-04-03T01:48:54;2.30;;;1.10;;
39612;SDS011;25303;48.896;13.342;2023-04-03T01:51:37;2.08;;;1.00;;
39612;SDS011;25303;48.896;13.342;2023-04-03T01:54:20;2.85;;;1.20;;
39612;SDS011;25303;48.896;13.342;2023-04-03T01:57:03;3.45;;;1.40;;
39612;SDS011;25303;48.896;13.342;2023-04-03T01:59:46;6.07;;;1.35;;
39612;SDS011;25303;48.896;13.342;2023-04-03T02:02:30;2.38;;;1.20;;
39612;SDS011;25303;48.896;13.342;2023-04-03T02:05:14;1.75;;;1.00;;
39612;SDS011;25303;48.896;13.342;2023-04-03T02:07:57;3.10;;;1.17;;
39612;SDS011;25303;48.896;13.342;2023-04-03T02:10:40;2.15;;;1.10;;
39612;SDS011;25303;48.896;13.342;2023-04-03T02:13:22;2.47;;;1.10;;
39612;SDS011;25303;48.896;13.342;2023-04-03T02:16:06;3.10;;;1.17;;
39612;SDS011;25303;48.896;13.342;2023-04-03T02:18:51;2.80;;;1.20;;
39612;SDS011;25303;48.896;13.342;2023-04-03T02:21:35;2.17;;;1.02;;
39612;SDS011;25303;48.896;13.342;2023-04-03T02:24:18;2.85;;;1.23;;
39612;SDS011;25303;48.896;13.342;2023-04-03T02:27:01;1.63;;;0.95;;
39612;SDS011;25303;48.896;13.342;2023-04-03T02:29:44;2.38;;;1.10;;
39612;SDS011;25303;48.896;13.342;2023-04-03T02:32:27;2.22;;;1.20;;
39612;SDS011;25303;48.896;13.342;2023-04-03T02:35:10;2.13;;;0.90;;
39612;SDS011;25303;48.896;13.342;2023-04-03T02:37:55;2.67;;;1.05;;
39612;SDS011;25303;48.896;13.342;2023-04-03T02:40:38;2.38;;;1.02;;
39612;SDS011;25303;48.896;13.342;2023-04-03T02:43:21;1.67;;;1.00;;
39612;SDS011;25303;48.896;13.342;2023-04-03T02:46:04;1.73;;;1.00;;
39612;SDS011;25303;48.896;13.342;2023-04-03T02:48:47;1.40;;;0.90;;
39612;SDS011;25303;48.896;13.342;2023-04-03T02:51:30;1.45;;;0.90;;
39612;SDS011;25303;48.896;13.342;2023-04-03T02:54:15;2.00;;;1.10;;
39612;SDS011;25303;48.896;13.342;2023-04-03T02:57:02;2.03;;;1.08;;
39612;SDS011;25303;48.896;13.342;2023-04-03T02:59:45;4.00;;;1.25;;
39612;SDS011;25303;48.896;13.342;2023-04-03T03:02:28;2.22;;;1.20;;
39612;SDS011;25303;48.896;13.342;2023-04-03T03:05:11;1.80;;;1.08;;
39612;SDS011;25303;48.896;13.342;2023-04-03T03:07:54;1.63;;;0.90;;
39612;SDS011;25303;48.896;13.342;2023-04-03T03:10:38;1.20;;;0.90;;
39612;SDS011;25303;48.896;13.342;2023-04-03T03:13:21;2.17;;;1.02;;
39612;SDS011;25303;48.896;13.342;2023-04-03T03:16:04;1.90;;;1.00;;
39612;SDS011;25303;48.896;13.342;2023-04-03T03:18:48;2.53;;;1.23;;
39612;SDS011;25303;48.896;13.342;2023-04-03T03:21:31;3.10;;;1.20;;
39612;SDS011;25303;48.896;13.342;2023-04-03T03:24:15;3.15;;;1.50;;
39612;SDS011;25303;48.896;13.342;2023-04-03T03:26:59;3.65;;;1.50;;
39612;SDS011;25303;48.896;13.342;2023-04-03T03:29:42;2.72;;;1.40;;
39612;SDS011;25303;48.896;13.342;2023-04-03T03:35:10;2.55;;;1.17;;
39612;SDS011;25303;48.896;13.342;2023-04-03T03:37:53;2.20;;;1.30;;
39612;SDS011;25303;48.896;13.342;2023-04-03T03:40:36;2.58;;;1.40;;
39612;SDS011;25303;48.896;13.342;2023-04-03T03:43:21;2.17;;;1.30;;
39612;SDS011;25303;48.896;13.342;2023-04-03T03:46:06;1.23;;;0.80;;
39612;SDS011;25303;48.896;13.342;2023-04-03T03:48:49;2.10;;;1.30;;
39612;SDS011;25303;48.896;13.342;2023-04-03T03:51:32;3.65;;;1.15;;
39612;SDS011;25303;48.896;13.342;2023-04-03T03:54:15;2.90;;;1.30;;
39612;SDS011;25303;48.896;13.342;2023-04-03T03:56:58;1.80;;;1.10;;
39612;SDS011;25303;48.896;13.342;2023-04-03T03:59:45;1.75;;;1.20;;
39612;SDS011;25303;48.896;13.342;2023-04-03T04:02:32;2.33;;;1.00;;
39612;SDS011;25303;48.896;13.342;2023-04-03T04:05:15;2.15;;;1.10;;
39612;SDS011;25303;48.896;13.342;2023-04-03T04:07:58;1.55;;;1.10;;
39612;SDS011;25303;48.896;13.342;2023-04-03T04:10:42;3.63;;;1.42;;
39612;SDS011;25303;48.896;13.342;2023-04-03T04:16:11;3.20;;;1.35;;
39612;SDS011;25303;48.896;13.342;2023-04-03T04:18:54;4.75;;;1.30;;
39612;SDS011;25303;48.896;13.342;2023-04-03T04:21:38;3.17;;;1.58;;
39612;SDS011;25303;48.896;13.342;2023-04-03T04:24:22;4.22;;;1.50;;
39612;SDS011;25303;48.896;13.342;2023-04-03T04:27:07;2.13;;;1.23;;
39612;SDS011;25303;48.896;13.342;2023-04-03T04:29:51;2.50;;;1.10;;
39612;SDS011;25303;48.896;13.342;2023-04-03T04:32:36;3.35;;;1.20;;
39612;SDS011;25303;48.896;13.342;2023-04-03T04:38:05;2.28;;;1.20;;
39612;SDS011;25303;48.896;13.342;2023-04-03T04:40:48;2.42;;;1.02;;
39612;SDS011;25303;48.896;13.342;2023-04-03T04:43:31;2.92;;;1.08;;
39612;SDS011;25303;48.896;13.342;2023-04-03T04:46:15;2.25;;;1.42;;
39612;SDS011;25303;48.896;13.342;2023-04-03T04:49:05;1.80;;;1.05;;
39612;SDS011;25303;48.896;13.342;2023-04-03T04:54:36;1.67;;;1.20;;
39612;SDS011;25303;48.896;13.342;2023-04-03T04:57:19;1.55;;;1.00;;
39612;SDS011;25303;48.896;13.342;2023-04-03T05:00:04;3.20;;;1.30;;
39612;SDS011;25303;48.896;13.342;2023-04-03T05:02:47;2.00;;;0.95;;
39612;SDS011;25303;48.896;13.342;2023-04-03T05:05:34;3.75;;;1.23;;
39612;SDS011;25303;48.896;13.342;2023-04-03T05:08:18;4.65;;;1.38;;
39612;SDS011;25303;48.896;13.342;2023-04-03T05:11:01;3.13;;;1.40;;
39612;SDS011;25303;48.896;13.342;2023-04-03T05:13:45;4.80;;;1.73;;
39612;SDS011;25303;48.896;13.342;2023-04-03T05:16:28;2.35;;;1.45;;
39612;SDS011;25303;48.896;13.342;2023-04-03T05:19:11;3.43;;;1.77;;
39612;SDS011;25303;48.896;13.342;2023-04-03T05:21:57;4.28;;;1.90;;
39612;SDS011;25303;48.896;13.342;2023-04-03T05:24:42;3.33;;;1.60;;
39612;SDS011;25303;48.896;13.342;2023-04-03T05:27:25;3.60;;;1.70;;
39612;SDS011;25303;48.896;13.342;2023-04-03T05:30:11;3.65;;;1.80;;
39612;SDS011;25303;48.896;13.342;2023-04-03T05:32:56;3.22;;;1.45;;
39612;SDS011;25303;48.896;13.342;2023-04-03T05:35:49;3.47;;;1.40;;
39612;SDS011;25303;48.896;13.342;2023-04-03T05:38:39;2.60;;;1.60;;
39612;SDS011;25303;48.896;13.342;2023-04-03T05:41:23;3.15;;;1.90;;
39612;SDS011;25303;48.896;13.342;2023-04-03T05:44:06;2.90;;;1.50;;
39612;SDS011;25303;48.896;13.342;2023-04-03T05:46:49;3.90;;;2.05;;
39612;SDS011;25303;48.896;13.342;2023-04-03T05:49:33;4.40;;;2.05;;
39612;SDS011;25303;48.896;13.342;2023-04-03T05:52:18;4.47;;;2.30;;
39612;SDS011;25303;48.896;13.342;2023-04-03T05:55:07;9.85;;;2.45;;
39612;SDS011;25303;48.896;13.342;2023-04-03T05:57:50;4.30;;;2.08;;
39612;SDS011;25303;48.896;13.342;2023-04-03T06:00:34;3.95;;;2.13;;
39612;SDS011;25303;48.896;13.342;2023-04-03T06:03:17;5.45;;;2.50;;
39612;SDS011;25303;48.896;13.342;2023-04-03T06:06:02;6.57;;;2.73;;
39612;SDS011;25303;48.896;13.342;2023-04-03T06:08:47;6.43;;;2.38;;
39612;SDS011;25303;48.896;13.342;2023-04-03T06:11:31;6.35;;;2.47;;
39612;SDS011;25303;48.896;13.342;2023-04-03T06:14:15;5.95;;;2.38;;
39612;SDS011;25303;48.896;13.342;2023-04-03T06:16:58;6.38;;;2.30;;
39612;SDS011;25303;48.896;13.342;2023-04-03T06:19:41;4.77;;;2.07;;
39612;SDS011;25303;48.896;13.342;2023-04-03T06:22:25;5.40;;;2.05;;
39612;SDS011;25303;48.896;13.342;2023-04-03T06:25:11;3.67;;;1.90;;
39612;SDS011;25303;48.896;13.342;2023-04-03T06:27:55;6.15;;;1.60;;
39612;SDS011;25303;48.896;13.342;2023-04-03T06:30:38;3.42;;;1.50;;
39612;SDS011;25303;48.896;13.342;2023-04-03T06:33:21;4.07;;;1.60;;
39612;SDS011;25303;48.896;13.342;2023-04-03T06:36:05;3.45;;;1.48;;
39612;SDS011;25303;48.896;13.342;2023-04-03T06:38:49;3.97;;;1.42;;
39612;SDS011;25303;48.896;13.342;2023-04-03T06:41:32;3.08;;;1.45;;
39612;SDS011;25303;48.896;13.342;2023-04-03T06:44:18;3.50;;;1.30;;
39612;SDS011;25303;48.896;13.342;2023-04-03T06:47:01;6.45;;;1.40;;
39612;SDS011;25303;48.896;13.342;2023-04-03T06:49:44;3.03;;;1.30;;
39612;SDS011;25303;48.896;13.342;2023-04-03T06:52:27;3.83;;;1.10;;
39612;SDS011;25303;48.896;13.342;2023-04-03T06:55:10;4.72;;;1.48;;
39612;SDS011;25303;48.896;13.342;2023-04-03T06:57:53;3.70;;;1.20;;
39612;SDS011;25303;48.896;13.342;2023-04-03T07:00:37;3.08;;;1.05;;
39612;SDS011;25303;48.896;13.342;2023-04-03T07:03:20;2.42;;;1.02;;
39612;SDS011;25303;48.896;13.342;2023-04-03T07:06:04;2.42;;;1.00;;
39612;SDS011;25303;48.896;13.342;2023-04-03T07:08:48;5.05;;;1.40;;
39612;SDS011;25303;48.896;13.342;2023-04-03T07:11:31;7.22;;;1.20;;
39612;SDS011;25303;48.896;13.342;2023-04-03T07:14:14;3.53;;;1.10;;
39612;SDS011;25303;48.896;13.342;2023-04-03T07:16:59;2.85;;;0.80;;
39612;SDS011;25303;48.896;13.342;2023-04-03T07:19:41;2.38;;;0.90;;
39612;SDS011;25303;48.896;13.342;2023-04-03T07:22:24;4.72;;;1.17;;
39612;SDS011;25303;48.896;13.342;2023-04-03T07:25:08;2.53;;;1.02;;
39612;SDS011;25303;48.896;13.342;2023-04-03T07:27:52;5.10;;;1.00;;
39612;SDS011;25303;48.896;13.342;2023-04-03T07:30:43;3.30;;;1.10;;
39612;SDS011;25303;48.896;13.342;2023-04-03T07:33:28;3.78;;;1.10;;
39612;SDS011;25303;48.896;13.342;2023-04-03T07:36:15;2.75;;;1.30;;
39612;SDS011;25303;48.896;13.342;2023-04-03T07:39:00;4.60;;;1.38;;
39612;SDS011;25303;48.896;13.342;2023-04-03T07:41:43;5.45;;;1.63;;
39612;SDS011;25303;48.896;13.342;2023-04-03T07:44:26;3.25;;;1.02;;
39612;SDS011;25303;48.896;13.342;2023-04-03T07:47:09;3.38;;;1.00;;
39612;SDS011;25303;48.896;13.342;2023-04-03T07:49:53;3.47;;;1.05;;
39612;SDS011;25303;48.896;13.342;2023-04-03T07:52:36;4.43;;;1.30;;
39612;SDS011;25303;48.896;13.342;2023-04-03T07:55:19;1.90;;;1.20;;
39612;SDS011;25303;48.896;13.342;2023-04-03T07:58:02;3.70;;;1.10;;
39612;SDS011;25303;48.896;13.342;2023-04-03T08:00:46;4.57;;;1.45;;
39612;SDS011;25303;48.896;13.342;2023-04-03T08:03:29;2.65;;;1.20;;
39612;SDS011;25303;48.896;13.342;2023-04-03T08:06:14;4.80;;;0.90;;
39612;SDS011;25303;48.896;13.342;2023-04-03T08:09:04;3.58;;;1.20;;
39612;SDS011;25303;48.896;13.342;2023-04-03T08:11:47;4.13;;;0.80;;
39612;SDS011;25303;48.896;13.342;2023-04-03T08:14:30;1.88;;;0.70;;
39612;SDS011;25303;48.896;13.342;2023-04-03T08:17:15;3.47;;;0.90;;
39612;SDS011;25303;48.896;13.342;2023-04-03T08:19:58;1.98;;;0.80;;
39612;SDS011;25303;48.896;13.342;2023-04-03T08:22:43;2.90;;;0.82;;
39612;SDS011;25303;48.896;13.342;2023-04-03T08:25:26;2.15;;;0.80;;
39612;SDS011;25303;48.896;13.342;2023-04-03T08:28:11;1.83;;;0.80;;
39612;SDS011;25303;48.896;13.342;2023-04-03T08:30:54;1.42;;;0.68;;
39612;SDS011;25303;48.896;13.342;2023-04-03T08:33:37;3.85;;;1.00;;
39612;SDS011;25303;48.896;13.342;2023-04-03T08:36:21;3.25;;;0.95;;
39612;SDS011;25303;48.896;13.342;2023-04-03T08:39:08;2.40;;;0.73;;
39612;SDS011;25303;48.896;13.342;2023-04-03T08:41:51;1.70;;;0.70;;
39612;SDS011;25303;48.896;13.342;2023-04-03T08:44:37;3.77;;;0.70;;
39612;SDS011;25303;48.896;13.342;2023-04-03T08:47:27;2.72;;;0.80;;
39612;SDS011;25303;48.896;13.342;2023-04-03T08:50:20;4.60;;;0.70;;
39612;SDS011;25303;48.896;13.342;2023-04-03T08:53:06;2.72;;;0.70;;
39612;SDS011;25303;48.896;13.342;2023-04-03T08:55:57;3.25;;;0.90;;
39612;SDS011;25303;48.896;13.342;2023-04-03T08:58:42;2.08;;;0.55;;
39612;SDS011;25303;48.896;13.342;2023-04-03T09:01:33;1.35;;;0.55;;
39612;SDS011;25303;48.896;13.342;2023-04-03T09:04:19;3.33;;;0.88;;
39612;SDS011;25303;48.896;13.342;2023-04-03T09:07:03;1.20;;;0.50;;
39612;SDS011;25303;48.896;13.342;2023-04-03T09:09:49;2.03;;;0.77;;
39612;SDS011;25303;48.896;13.342;2023-04-03T09:12:37;1.48;;;0.65;;
39612;SDS011;25303;48.896;13.342;2023-04-03T09:15:22;4.15;;;0.90;;
39612;SDS011;25303;48.896;13.342;2023-04-03T09:18:19;3.30;;;0.80;;
39612;SDS011;25303;48.896;13.342;2023-04-03T09:21:07;4.15;;;0.70;;
39612;SDS011;25303;48.896;13.342;2023-04-03T09:23:58;2.35;;;0.60;;
39612;SDS011;25303;48.896;13.342;2023-04-03T09:26:43;3.42;;;1.00;;
39612;SDS011;25303;48.896;13.342;2023-04-03T09:29:33;1.98;;;0.68;;
39612;SDS011;25303;48.896;13.342;2023-04-03T09:32:22;1.58;;;0.70;;
39612;SDS011;25303;48.896;13.342;2023-04-03T09:35:15;4.05;;;0.80;;
39612;SDS011;25303;48.896;13.342;2023-04-03T09:38:17;2.08;;;0.90;;
39612;SDS011;25303;48.896;13.342;2023-04-03T09:41:05;2.83;;;0.90;;
39612;SDS011;25303;48.896;13.342;2023-04-03T09:43:51;3.13;;;0.80;;
39612;SDS011;25303;48.896;13.342;2023-04-03T09:46:36;2.20;;;0.60;;
39612;SDS011;25303;48.896;13.342;2023-04-03T09:49:21;4.47;;;0.80;;
39612;SDS011;25303;48.896;13.342;2023-04-03T09:52:15;2.45;;;0.90;;
39612;SDS011;25303;48.896;13.342;2023-04-03T09:55:05;2.45;;;0.85;;
39612;SDS011;25303;48.896;13.342;2023-04-03T09:57:50;2.70;;;0.82;;
39612;SDS011;25303;48.896;13.342;2023-04-03T10:00:35;2.47;;;0.60;;
39612;SDS011;25303;48.896;13.342;2023-04-03T10:03:24;1.88;;;0.70;;
39612;SDS011;25303;48.896;13.342;2023-04-03T10:06:21;2.45;;;0.80;;
39612;SDS011;25303;48.896;13.342;2023-04-03T10:09:06;2.53;;;0.93;;
39612;SDS011;25303;48.896;13.342;2023-04-03T10:12:02;3.38;;;0.90;;
39612;SDS011;25303;48.896;13.342;2023-04-03T10:14:53;3.42;;;1.00;;
39612;SDS011;25303;48.896;13.342;2023-04-03T10:17:41;2.42;;;0.90;;
39612;SDS011;25303;48.896;13.342;2023-04-03T10:20:39;3.92;;;1.00;;
39612;SDS011;25303;48.896;13.342;2023-04-03T10:23:26;4.25;;;1.23;;
39612;SDS011;25303;48.896;13.342;2023-04-03T10:26:15;2.92;;;0.90;;
39612;SDS011;25303;48.896;13.342;2023-04-03T10:29:07;3.05;;;1.00;;
39612;SDS011;25303;48.896;13.342;2023-04-03T10:32:00;2.33;;;1.00;;
39612;SDS011;25303;48.896;13.342;2023-04-03T10:37:50;2.40;;;0.90;;
39612;SDS011;25303;48.896;13.342;2023-04-03T10:40:45;2.15;;;1.00;;
39612;SDS011;25303;48.896;13.342;2023-04-03T10:43:36;2.58;;;0.93;;
39612;SDS011;25303;48.896;13.342;2023-04-03T10:46:27;2.15;;;1.00;;
39612;SDS011;25303;48.896;13.342;2023-04-03T10:49:30;2.83;;;1.10;;
39612;SDS011;25303;48.896;13.342;2023-04-03T10:52:41;3.30;;;1.17;;
39612;SDS011;25303;48.896;13.342;2023-04-03T10:55:34;2.72;;;1.00;;
39612;SDS011;25303;48.896;13.342;2023-04-03T10:58:21;3.38;;;1.30;;
39612;SDS011;25303;48.896;13.342;2023-04-03T11:01:09;3.22;;;1.30;;
39612;SDS011;25303;48.896;13.342;2023-04-03T11:03:57;3.35;;;1.10;;
39612;SDS011;25303;48.896;13.342;2023-04-03T11:06:43;1.98;;;0.93;;
39612;SDS011;25303;48.896;13.342;2023-04-03T11:09:32;5.55;;;1.10;;
39612;SDS011;25303;48.896;13.342;2023-04-03T11:12:23;3.83;;;1.00;;
39612;SDS011;25303;48.896;13.342;2023-04-03T11:15:11;2.55;;;1.00;;
39612;SDS011;25303;48.896;13.342;2023-04-03T11:17:58;3.22;;;1.23;;
39612;SDS011;25303;48.896;13.342;2023-04-03T11:20:47;2.47;;;0.95;;
39612;SDS011;25303;48.896;13.342;2023-04-03T11:23:36;2.30;;;0.93;;
39612;SDS011;25303;48.896;13.342;2023-04-03T11:26:31;2.85;;;1.00;;
39612;SDS011;25303;48.896;13.342;2023-04-03T11:29:23;3.58;;;1.00;;
39612;SDS011;25303;48.896;13.342;2023-04-03T11:32:20;2.47;;;1.10;;
39612;SDS011;25303;48.896;13.342;2023-04-03T11:35:28;3.30;;;0.90;;
39612;SDS011;25303;48.896;13.342;2023-04-03T11:38:14;3.67;;;1.40;;
39612;SDS011;25303;48.896;13.342;2023-04-03T11:41:03;4.80;;;1.20;;
39612;SDS011;25303;48.896;13.342;2023-04-03T11:43:55;2.45;;;1.10;;
39612;SDS011;25303;48.896;13.342;2023-04-03T11:46:54;5.30;;;1.20;;
39612;SDS011;25303;48.896;13.342;2023-04-03T11:49:55;2.53;;;1.00;;
39612;SDS011;25303;48.896;13.342;2023-04-03T11:52:55;3.30;;;1.00;;
39612;SDS011;25303;48.896;13.342;2023-04-03T11:59:23;3.25;;;1.25;;
39612;SDS011;25303;48.896;13.342;2023-04-03T12:02:14;5.90;;;1.40;;
39612;SDS011;25303;48.896;13.342;2023-04-03T12:05:34;2.92;;;1.10;;
39612;SDS011;25303;48.896;13.342;2023-04-03T12:08:24;2.43;;;0.97;;
39612;SDS011;25303;48.896;13.342;2023-04-03T12:11:14;3.05;;;1.13;;
39612;SDS011;25303;48.896;13.342;2023-04-03T12:14:12;2.90;;;1.20;;
39612;SDS011;25303;48.896;13.342;2023-04-03T12:16:57;1.92;;;1.00;;
39612;SDS011;25303;48.896;13.342;2023-04-03T12:19:42;2.13;;;0.97;;
39612;SDS011;25303;48.896;13.342;2023-04-03T12:22:27;3.17;;;1.35;;
39612;SDS011;25303;48.896;13.342;2023-04-03T12:28:29;2.85;;;1.10;;
39612;SDS011;25303;48.896;13.342;2023-04-03T12:31:12;3.22;;;1.58;;
39612;SDS011;25303;48.896;13.342;2023-04-03T12:34:05;3.38;;;1.20;;
39612;SDS011;25303;48.896;13.342;2023-04-03T12:37:00;2.40;;;1.13;;
39612;SDS011;25303;48.896;13.342;2023-04-03T12:39:55;4.05;;;1.30;;
39612;SDS011;25303;48.896;13.342;2023-04-03T12:42:57;2.80;;;1.20;;
39612;SDS011;25303;48.896;13.342;2023-04-03T12:46:02;4.55;;;1.35;;
39612;SDS011;25303;48.896;13.342;2023-04-03T12:48:48;5.22;;;1.30;;
39612;SDS011;25303;48.896;13.342;2023-04-03T12:51:34;3.08;;;1.25;;
39612;SDS011;25303;48.896;13.342;2023-04-03T12:54:22;3.97;;;1.23;;
39612;SDS011;25303;48.896;13.342;2023-04-03T12:57:08;4.95;;;1.48;;
39612;SDS011;25303;48.896;13.342;2023-04-03T13:02:36;2.20;;;1.00;;
39612;SDS011;25303;48.896;13.342;2023-04-03T13:05:20;2.85;;;1.30;;
39612;SDS011;25303;48.896;13.342;2023-04-03T13:08:05;3.60;;;1.10;;
39612;SDS011;25303;48.896;13.342;2023-04-03T13:10:59;2.95;;;1.30;;
39612;SDS011;25303;48.896;13.342;2023-04-03T13:13:53;3.03;;;1.05;;
39612;SDS011;25303;48.896;13.342;2023-04-03T13:16:37;3.38;;;1.08;;
39612;SDS011;25303;48.896;13.342;2023-04-03T13:19:23;3.85;;;1.30;;
39612;SDS011;25303;48.896;13.342;2023-04-03T13:22:13;2.58;;;1.13;;
39612;SDS011;25303;48.896;13.342;2023-04-03T13:25:09;2.47;;;1.17;;
39612;SDS011;25303;48.896;13.342;2023-04-03T13:27:56;3.05;;;1.40;;
39612;SDS011;25303;48.896;13.342;2023-04-03T13:30:55;3.20;;;1.30;;
39612;SDS011;25303;48.896;13.342;2023-04-03T13:33:43;2.20;;;1.23;;
39612;SDS011;25303;48.896;13.342;2023-04-03T13:36:38;3.60;;;1.48;;
39612;SDS011;25303;48.896;13.342;2023-04-03T13:39:23;6.35;;;1.67;;
39612;SDS011;25303;48.896;13.342;2023-04-03T13:42:15;3.33;;;1.27;;
39612;SDS011;25303;48.896;13.342;2023-04-03T13:45:20;3.15;;;1.17;;
39612;SDS011;25303;48.896;13.342;2023-04-03T13:48:10;5.18;;;1.40;;
39612;SDS011;25303;48.896;13.342;2023-04-03T13:51:05;3.15;;;1.42;;
39612;SDS011;25303;48.896;13.342;2023-04-03T13:54:00;3.72;;;1.50;;
39612;SDS011;25303;48.896;13.342;2023-04-03T13:56:53;3.70;;;1.33;;
39612;SDS011;25303;48.896;13.342;2023-04-03T13:59:38;2.50;;;1.10;;
39612;SDS011;25303;48.896;13.342;2023-04-03T14:02:28;3.83;;;1.20;;
39612;SDS011;25303;48.896;13.342;2023-04-03T14:05:12;3.15;;;1.30;;
39612;SDS011;25303;48.896;13.342;2023-04-03T14:07:57;2.13;;;1.05;;
39612;SDS011;25303;48.896;13.342;2023-04-03T14:10:40;3.58;;;1.20;;
39612;SDS011;25303;48.896;13.342;2023-04-03T14:13:23;3.47;;;1.20;;
39612;SDS011;25303;48.896;13.342;2023-04-03T14:16:06;3.17;;;1.30;;
39612;SDS011;25303;48.896;13.342;2023-04-03T14:18:57;3.50;;;1.30;;
39612;SDS011;25303;48.896;13.342;2023-04-03T14:24:23;2.75;;;1.10;;
39612;SDS011;25303;48.896;13.342;2023-04-03T14:27:09;3.60;;;1.27;;
39612;SDS011;25303;48.896;13.342;2023-04-03T14:29:58;3.33;;;1.30;;
39612;SDS011;25303;48.896;13.342;2023-04-03T14:32:44;2.25;;;1.20;;
39612;SDS011;25303;48.896;13.342;2023-04-03T14:35:30;2.45;;;1.02;;
39612;SDS011;25303;48.896;13.342;2023-04-03T14:38:19;4.50;;;1.38;;
39612;SDS011;25303;48.896;13.342;2023-04-03T14:41:04;3.28;;;1.33;;
39612;SDS011;25303;48.896;13.342;2023-04-03T14:43:57;3.13;;;1.15;;
39612;SDS011;25303;48.896;13.342;2023-04-03T14:46:41;2.83;;;1.40;;
39612;SDS011;25303;48.896;13.342;2023-04-03T14:49:37;2.55;;;1.20;;
39612;SDS011;25303;48.896;13.342;2023-04-03T14:52:22;3.63;;;1.23;;
39612;SDS011;25303;48.896;13.342;2023-04-03T14:55:07;2.28;;;1.10;;
39612;SDS011;25303;48.896;13.342;2023-04-03T14:57:50;3.95;;;1.30;;
39612;SDS011;25303;48.896;13.342;2023-04-03T15:00:33;4.72;;;1.30;;
39612;SDS011;25303;48.896;13.342;2023-04-03T15:03:18;3.10;;;1.50;;
39612;SDS011;25303;48.896;13.342;2023-04-03T15:06:03;3.15;;;1.10;;
39612;SDS011;25303;48.896;13.342;2023-04-03T15:08:48;2.80;;;1.30;;
39612;SDS011;25303;48.896;13.342;2023-04-03T15:11:31;2.80;;;1.15;;
39612;SDS011;25303;48.896;13.342;2023-04-03T15:14:13;4.93;;;1.42;;
39612;SDS011;25303;48.896;13.342;2023-04-03T15:17:17;4.65;;;1.50;;
39612;SDS011;25303;48.896;13.342;2023-04-03T15:20:03;3.40;;;1.20;;
39612;SDS011;25303;48.896;13.342;2023-04-03T15:22:53;2.15;;;1.10;;
39612;SDS011;25303;48.896;13.342;2023-04-03T15:25:39;2.40;;;1.30;;
39612;SDS011;25303;48.896;13.342;2023-04-03T15:31:06;2.78;;;1.50;;
39612;SDS011;25303;48.896;13.342;2023-04-03T15:33:49;3.60;;;1.30;;
39612;SDS011;25303;48.896;13.342;2023-04-03T15:36:32;4.78;;;1.48;;
39612;SDS011;25303;48.896;13.342;2023-04-03T15:39:15;2.30;;;1.00;;
39612;SDS011;25303;48.896;13.342;2023-04-03T15:41:59;4.65;;;1.40;;
39612;SDS011;25303;48.896;13.342;2023-04-03T15:44:47;3.22;;;1.33;;
39612;SDS011;25303;48.896;13.342;2023-04-03T15:47:30;4.65;;;1.55;;
39612;SDS011;25303;48.896;13.342;2023-04-03T15:50:13;3.25;;;1.63;;
39612;SDS011;25303;48.896;13.342;2023-04-03T15:52:56;2.80;;;1.17;;
39612;SDS011;25303;48.896;13.342;2023-04-03T15:55:39;3.25;;;1.25;;
39612;SDS011;25303;48.896;13.342;2023-04-03T15:58:24;3.72;;;1.40;;
39612;SDS011;25303;48.896;13.342;2023-04-03T16:01:08;3.00;;;1.30;;
39612;SDS011;25303;48.896;13.342;2023-04-03T16:03:52;3.30;;;0.98;;
39612;SDS011;25303;48.896;13.342;2023-04-03T16:06:35;5.20;;;1.27;;
39612;SDS011;25303;48.896;13.342;2023-04-03T16:09:18;3.53;;;1.02;;
39612;SDS011;25303;48.896;13.342;2023-04-03T16:12:01;2.90;;;1.17;;
39612;SDS011;25303;48.896;13.342;2023-04-03T16:14:46;4.32;;;1.55;;
39612;SDS011;25303;48.896;13.342;2023-04-03T16:17:29;3.75;;;1.50;;
39612;SDS011;25303;48.896;13.342;2023-04-03T16:20:13;4.97;;;1.38;;
39612;SDS011;25303;48.896;13.342;2023-04-03T16:22:57;4.78;;;1.67;;
39612;SDS011;25303;48.896;13.342;2023-04-03T16:25:42;4.78;;;1.40;;
39612;SDS011;25303;48.896;13.342;2023-04-03T16:28:27;5.70;;;1.38;;
39612;SDS011;25303;48.896;13.342;2023-04-03T16:31:11;3.42;;;1.30;;
39612;SDS011;25303;48.896;13.342;2023-04-03T16:33:54;3.70;;;1.60;;
39612;SDS011;25303;48.896;13.342;2023-04-03T16:36:38;1.90;;;1.30;;
39612;SDS011;25303;48.896;13.342;2023-04-03T16:39:21;3.35;;;1.33;;
39612;SDS011;25303;48.896;13.342;2023-04-03T16:42:04;4.38;;;1.40;;
39612;SDS011;25303;48.896;13.342;2023-04-03T16:44:47;4.95;;;1.20;;
39612;SDS011;25303;48.896;13.342;2023-04-03T16:47:31;5.70;;;1.40;;
39612;SDS011;25303;48.896;13.342;2023-04-03T16:50:14;2.70;;;1.00;;
39612;SDS011;25303;48.896;13.342;2023-04-03T16:52:57;2.85;;;1.50;;
39612;SDS011;25303;48.896;13.342;2023-04-03T16:55:40;2.95;;;1.20;;
39612;SDS011;25303;48.896;13.342;2023-04-03T16:58:23;2.53;;;1.10;;
39612;SDS011;25303;48.896;13.342;2023-04-03T17:01:10;6.97;;;1.70;;
39612;SDS011;25303;48.896;13.342;2023-04-03T17:03:55;3.17;;;1.25;;
39612;SDS011;25303;48.896;13.342;2023-04-03T17:06:38;3.33;;;1.15;;